AirNav   Air Wisconsin Up To $57,000 Bonus
 
 449 users online  

FL74 Indian River Aerodrome
Vero Beach, Florida, USA

GOING TO VERO BEACH?


FAA INFORMATION EFFECTIVE 07 OCTOBER 2021

Location

FAA Identifier: FL74
Lat/Long: 27-35-55.1210N 080-30-07.1940W
27-35.918683N 080-30.119900W
27.5986447,-80.5019983
(estimated)
Elevation: 25 ft. / 8 m (estimated)
Variation: 03W (1985)
From city: 6 miles SW of VERO BEACH, FL
Time zone: UTC -4 (UTC -5 during Standard Time)
Zip code: 32968

Airport Operations

Airport use: Private use. Permission required prior to landing
Activation date: 09/1972
Control tower: no
ARTCC: MIAMI CENTER
FSS: SAINT PETERSBURG FLIGHT SERVICE STATION
Attendance: SR-SS
Wind indicator: yes
Segmented circle: no
Lights: FOR LIRL RY 17/35 KEY UNICOM 5 TIMES.

Airport Communications

WX ASOS at VRB (6 nm NE): 120.575 (772-978-9535)
WX ASOS at FPR (9 nm SE): PHONE 772-489-4281
WX AWOS-3PT at X26 (13 nm N): 118.125 (772-388-5689)

Nearby radio navigation aids

VOR radial/distance  VOR name  Freq  Var
TRVr195/4.8TREASURE VORTAC117.3007W
MLBr174/31.2MELBOURNE VOR/DME115.8507W

 
NDB name  Hdg/Dist  Freq  Var  ID
FORT PIERCE321/9.627507WFPR ..-. .--. .-.

Airport Services

Airframe service: NONE
Powerplant service: NONE

Runway Information

Runway 17/35

Dimensions: 2600 x 150 ft. / 792 x 46 m
Surface: turf
Runway edge lights: low intensity
RUNWAY 17  RUNWAY 35
Traffic pattern: leftleft
Obstructions: 6 ft. canal, 100 ft. from runwayroad

Airport Ownership and Management from official FAA records

Ownership: Privately-owned
Owner: INDIAN RIVER AERODROME POA
460 SOPWITH DRIVE
VERO BEACH, FL 32968
Manager: DAVID J VON LINSOWE
160 SOPWITH DR.
VERO BEACH, FL 32968
Phone (772) 563-3671

Airport Operational Statistics

Aircraft based on the field: 32
Single engine airplanes: 30
Multi engine airplanes: 1
Ultralights: 1
    

Additional Remarks

FOR CD CTC PALM BEACH APCH AT 561-275-1430

Instrument Procedures

There are no published instrument procedures at FL74.

Some nearby airports with instrument procedures:

KVRB - Vero Beach Regional Airport (6 nm NE)
KFPR - Treasure Coast International Airport (9 nm SE)
X26 - Sebastian Municipal Airport (13 nm N)
KOBE - Okeechobee County Airport (27 nm SW)
KSUA - Witham Field Airport (29 nm SE)
 
Loc | Ops | Rwys | IFR | FBO | Links
Com | Nav | Svcs | Stats | Notes


 
Area around FL74 (Indian River Aerodrome)
 
Road maps at: MapQuest Bing Google
 
Aerial photo
WARNING: Photo may not be current or correct
Aerial photo of FL74 (Indian River Aerodrome)
Do you have a better or more recent aerial photo of Indian River Aerodrome that you would like to share? If so, please send us your photo.

 
Sectional chart

 
Airport distance calculator
Flying to Indian River Aerodrome? Find the distance to fly.

From to FL74

Sunrise and sunset
Times for 28-Oct-2021
 Local
(UTC-4)
 Zulu
(UTC)
Morning civil twilight07:0711:07
Sunrise07:3111:31
Sunset18:4122:41
Evening civil twilight19:0523:05

Current date and time
Zulu (UTC)  28-Oct-2021 06:42:38
Local (UTC-4)  28-Oct-2021 02:42:38
 
METAR
KVRB 
5nm NE 
280553Z AUTO 00000KT 10SM CLR 19/18 A2985 RMK AO2 SLP108 T01940183 10211 20189 56007
KFPR 
9nm SE 
280553Z AUTO 19003KT 10SM CLR 19/18 A2985 RMK AO2 SLP108 T01940178 10206 20178 56006
KX26 
13nm N 
280615Z AUTO 00000KT 10SM CLR 19/17 A2985 RMK AO2 T01850175
TAF
KVRB 
5nm NE 
280520Z 2806/2906 00000KT P6SM BKN250 FM281500 19011KT P6SM VCSH SCT020 SCT080 BKN150 FM281900 21016G24KT P6SM VCTS BKN035CB BKN050 TEMPO 2821/2824 3SM TSRA BKN025CB FM290000 22012G17KT P6SM VCSH BKN025 BKN050
KFPR 
9nm SE 
280520Z 2806/2906 00000KT P6SM BKN250 FM281500 19011KT P6SM VCSH SCT020 SCT080 BKN150 FM281900 21016G24KT P6SM VCTS BKN035CB BKN050 TEMPO 2821/2824 3SM TSRA BKN025CB FM290000 22012G17KT P6SM VCSH BKN025 BKN050
NOTAMs
Click for the latest NOTAMs
NOTAMs are issued by the DoD/FAA and will open in a separate window not controlled by AirNav.

 

 
 

Would you like to see your business listed on this page?

 If your business provides an interesting product or service to pilots, flight crews, aircraft, or users of the Indian River Aerodrome, you should consider listing it here.  To start the listing process, click on the button below
 
Add a business
 

Other Pages about Indian River Aerodrome

Update a link
 
Copyright © AirNav, LLC. All rights reserved. Privacy Policy  Contact